Time;durP1;ratioP1;P1;durP2;ratioP2;P2;SDS_P1;SDS_P2;PMS_P1;PMS_P2;Temp;Humidity;BMP_temperature;BMP_pressure;BME280_temperature;BME280_humidity;BME280_pressure;Samples;Min_cycle;Max_cycle;Signal;HPM_P1;HPM_P2
2023/01/04 00:01:04;;;;;;;8.93;5.50;;;4.30;99.90;;;;;;5009293;28;20478;-69
2023/01/04 00:03:30;;;;;;;7.10;5.87;;;4.30;99.90;;;;;;5016180;28;20173;-70
2023/01/04 00:06:03;;;;;;;14.33;5.70;;;4.30;99.90;;;;;;5013479;28;20439;-70
2023/01/04 00:08:29;;;;;;;10.23;7.03;;;4.30;99.90;;;;;;5015384;28;20411;-69
2023/01/04 00:11:05;;;;;;;7.17;6.27;;;4.30;99.90;;;;;;4999893;28;20459;-69
2023/01/04 00:13:32;;;;;;;7.67;5.33;;;4.30;99.90;;;;;;5011491;28;20534;-70
2023/01/04 00:16:02;;;;;;;6.13;5.53;;;4.30;99.90;;;;;;5011549;28;20522;-69
2023/01/04 00:18:29;;;;;;;10.23;7.50;;;4.40;99.90;;;;;;5014978;28;20481;-69
2023/01/04 00:20:54;;;;;;;7.27;5.60;;;4.40;99.90;;;;;;5014560;28;20432;-69
2023/01/04 00:23:20;;;;;;;6.70;5.57;;;4.40;99.90;;;;;;5011019;28;20433;-69
2023/01/04 00:25:45;;;;;;;8.40;5.07;;;4.40;99.90;;;;;;5016938;28;20313;-69
2023/01/04 00:28:11;;;;;;;10.90;5.90;;;4.40;99.90;;;;;;5013498;28;20187;-69
2023/01/04 00:30:37;;;;;;;7.10;5.60;;;4.40;99.90;;;;;;5014335;28;20692;-69
2023/01/04 00:33:02;;;;;;;10.93;6.63;;;4.40;99.90;;;;;;5013582;28;20200;-68
2023/01/04 00:35:28;;;;;;;6.80;5.70;;;4.30;99.90;;;;;;5012280;28;20176;-69
2023/01/04 00:37:53;;;;;;;13.33;6.90;;;4.30;99.90;;;;;;5014608;28;20185;-69
2023/01/04 00:40:19;;;;;;;13.80;6.40;;;4.30;99.90;;;;;;5010845;28;20192;-69
2023/01/04 00:42:44;;;;;;;6.50;5.90;;;4.30;99.90;;;;;;5016514;28;20257;-70
2023/01/04 00:45:10;;;;;;;5.50;4.70;;;4.40;99.90;;;;;;5013290;28;20230;-69
2023/01/04 00:47:35;;;;;;;7.43;6.40;;;4.30;99.90;;;;;;5014191;28;20591;-69
2023/01/04 00:50:02;;;;;;;8.80;6.43;;;4.30;99.90;;;;;;5013267;28;20212;-69
2023/01/04 00:52:28;;;;;;;8.17;5.93;;;4.30;99.90;;;;;;5011495;28;20577;-70
2023/01/04 00:54:53;;;;;;;11.63;6.70;;;4.40;99.90;;;;;;5011033;28;20418;-69
2023/01/04 00:57:19;;;;;;;5.37;4.83;;;4.40;99.90;;;;;;5013553;28;20168;-69
2023/01/04 00:59:44;;;;;;;8.30;5.57;;;4.40;99.90;;;;;;5010856;28;20289;-68
2023/01/04 01:02:10;;;;;;;6.73;5.90;;;4.40;99.90;;;;;;5015453;28;20559;-68
2023/01/04 01:04:35;;;;;;;6.53;5.30;;;4.40;99.90;;;;;;5022261;28;20179;-70
2023/01/04 01:07:01;;;;;;;5.67;4.93;;;4.40;99.90;;;;;;5017891;28;20183;-69
2023/01/04 01:09:27;;;;;;;7.50;6.30;;;4.40;99.90;;;;;;4994345;28;20673;-69
2023/01/04 01:11:53;;;;;;;8.87;6.23;;;4.50;99.90;;;;;;5005414;28;20197;-69
2023/01/04 01:14:21;;;;;;;7.97;5.93;;;4.50;99.90;;;;;;5011790;28;20195;-70
2023/01/04 01:16:47;;;;;;;6.90;4.83;;;4.50;99.90;;;;;;5013209;28;20422;-69
2023/01/04 01:19:13;;;;;;;6.23;5.13;;;4.50;99.90;;;;;;5007928;28;20423;-69
2023/01/04 01:21:38;;;;;;;6.93;5.27;;;4.50;99.90;;;;;;5009040;28;20201;-69
2023/01/04 01:24:05;;;;;;;9.57;6.10;;;4.50;99.90;;;;;;5009742;28;20426;-68
2023/01/04 01:26:31;;;;;;;5.50;4.87;;;4.50;99.90;;;;;;5008727;28;20184;-69
2023/01/04 01:28:57;;;;;;;8.07;4.90;;;4.50;99.90;;;;;;5013818;28;20415;-68
2023/01/04 01:31:26;;;;;;;6.97;5.97;;;4.60;99.90;;;;;;5013879;28;20481;-68
2023/01/04 01:33:53;;;;;;;5.83;4.60;;;4.50;99.90;;;;;;5016360;28;20495;-68
2023/01/04 01:36:20;;;;;;;13.63;5.50;;;4.60;99.90;;;;;;5022151;28;20771;-69
2023/01/04 01:38:46;;;;;;;8.57;5.47;;;4.60;99.90;;;;;;5022336;28;21208;-69
2023/01/04 01:41:20;;;;;;;5.87;4.53;;;4.60;99.90;;;;;;5014948;28;20419;-69
2023/01/04 01:43:49;;;;;;;6.07;5.47;;;4.60;99.90;;;;;;5021486;28;20420;-69
2023/01/04 01:46:18;;;;;;;7.23;5.60;;;4.60;99.90;;;;;;4997726;28;20429;-69
2023/01/04 01:48:44;;;;;;;5.80;4.87;;;4.60;99.90;;;;;;5021862;28;20410;-69
2023/01/04 01:51:10;;;;;;;4.90;4.47;;;4.60;99.90;;;;;;5023421;28;20523;-70
2023/01/04 01:53:39;;;;;;;6.03;4.60;;;4.60;99.90;;;;;;5015926;28;20473;-69
2023/01/04 01:56:08;;;;;;;5.63;5.00;;;4.60;99.90;;;;;;5016481;28;20443;-69
2023/01/04 01:58:38;;;;;;;5.83;4.17;;;4.60;99.90;;;;;;5016307;28;20515;-69
2023/01/04 02:01:04;;;;;;;7.87;4.93;;;4.60;99.90;;;;;;5013817;28;20442;-69
2023/01/04 02:03:35;;;;;;;4.67;4.20;;;4.60;99.90;;;;;;5014295;28;20478;-70
2023/01/04 02:06:04;;;;;;;5.50;4.90;;;4.50;99.90;;;;;;5013251;28;20514;-69
2023/01/04 02:08:30;;;;;;;5.10;4.27;;;4.50;99.90;;;;;;5020947;28;20933;-69
2023/01/04 02:10:59;;;;;;;6.87;4.83;;;4.60;99.90;;;;;;5018164;28;20973;-69
2023/01/04 02:14:25;;;;;;;6.00;4.67;;;4.50;99.90;;;;;;5018529;28;20470;-70
2023/01/04 02:16:27;;;;;;;6.40;4.50;;;4.50;99.90;;;;;;5013499;28;20431;-69
2023/01/04 02:19:13;;;;;;;6.53;4.20;;;4.50;99.90;;;;;;5011590;28;20426;-69
2023/01/04 02:22:15;;;;;;;5.67;4.07;;;4.50;99.90;;;;;;5015750;28;20427;-70
2023/01/04 02:24:59;;;;;;;6.20;5.17;;;4.50;99.90;;;;;;5012202;28;20939;-68
2023/01/04 02:27:48;;;;;;;4.27;3.87;;;4.40;99.90;;;;;;5013042;28;20415;-69
2023/01/04 02:30:43;;;;;;;7.27;4.80;;;4.40;99.90;;;;;;4997646;28;20435;-68
2023/01/04 02:33:26;;;;;;;6.70;4.40;;;4.30;99.90;;;;;;5012138;28;20519;-68
2023/01/04 02:36:19;;;;;;;9.13;4.80;;;4.30;99.90;;;;;;5012502;28;20746;-68
2023/01/04 02:39:17;;;;;;;9.20;4.03;;;4.30;99.90;;;;;;5007770;28;20408;-68
2023/01/04 02:41:51;;;;;;;5.40;4.50;;;4.20;99.90;;;;;;5015125;28;20441;-68
2023/01/04 02:44:52;;;;;;;5.87;5.27;;;4.20;99.90;;;;;;5013868;28;20427;-70
2023/01/04 02:50:49;;;;;;;5.37;4.63;;;4.10;99.90;;;;;;5015366;28;20442;-70
2023/01/04 02:53:19;;;;;;;5.13;4.63;;;4.20;99.90;;;;;;5019545;28;20511;-69
2023/01/04 02:55:54;;;;;;;5.27;4.70;;;4.20;99.90;;;;;;5018015;28;20415;-70
2023/01/04 02:59:07;;;;;;;6.30;4.60;;;4.20;99.90;;;;;;5018282;28;20402;-69
2023/01/04 03:08:18;;;;;;;6.87;5.00;;;4.20;99.90;;;;;;5014234;28;20417;-69
2023/01/04 03:10:52;;;;;;;5.80;4.67;;;4.10;99.90;;;;;;5026407;28;20414;-69
2023/01/04 03:13:27;;;;;;;6.23;4.23;;;4.10;99.90;;;;;;5030457;28;20468;-69
2023/01/04 03:16:05;;;;;;;6.37;4.60;;;4.10;99.90;;;;;;5031306;28;20428;-68
2023/01/04 03:18:41;;;;;;;5.30;4.80;;;4.10;99.90;;;;;;5028446;28;20425;-68
2023/01/04 03:21:10;;;;;;;5.00;4.47;;;4.10;99.90;;;;;;5031658;28;20417;-69
2023/01/04 03:36:11;;;;;;;8.33;4.90;;;4.20;99.90;;;;;;5028356;28;20983;-69
2023/01/04 03:48:31;;;;;;;4.90;4.13;;;4.10;99.90;;;;;;5029771;28;20461;-70
2023/01/04 03:51:14;;;;;;;6.80;4.73;;;4.10;99.90;;;;;;5024944;28;20422;-69
2023/01/04 03:54:06;;;;;;;5.33;4.80;;;4.10;99.90;;;;;;5030423;28;20971;-69
2023/01/04 03:56:34;;;;;;;5.00;4.20;;;4.10;99.90;;;;;;5015954;28;20529;-69
2023/01/04 03:59:00;;;;;;;6.00;4.43;;;4.10;99.90;;;;;;5024410;28;20454;-69
2023/01/04 04:01:26;;;;;;;6.50;4.93;;;4.00;99.90;;;;;;5028612;28;20450;-69
2023/01/04 04:09:22;;;;;;;9.77;5.20;;;4.00;99.90;;;;;;5025352;28;20995;-69
2023/01/04 04:11:47;;;;;;;6.43;5.00;;;4.00;99.90;;;;;;5010897;28;20517;-68
2023/01/04 04:14:13;;;;;;;6.67;6.03;;;4.00;99.90;;;;;;5027958;28;20200;-69
2023/01/04 04:16:39;;;;;;;4.70;4.30;;;3.90;99.90;;;;;;5033098;28;20275;-70
2023/01/04 04:19:04;;;;;;;6.83;5.17;;;4.00;99.90;;;;;;5033068;28;20269;-69
2023/01/04 04:21:30;;;;;;;9.57;6.53;;;4.00;99.90;;;;;;5028634;28;20274;-73
2023/01/04 04:23:56;;;;;;;7.10;4.77;;;3.90;99.90;;;;;;5028831;28;20185;-69
2023/01/04 04:26:22;;;;;;;7.10;4.83;;;4.00;99.90;;;;;;5027784;28;20180;-70
2023/01/04 04:28:48;;;;;;;4.40;4.00;;;3.90;99.90;;;;;;5028683;28;20178;-69
2023/01/04 04:31:14;;;;;;;5.90;5.20;;;4.00;99.90;;;;;;5028772;28;20840;-71
2023/01/04 04:33:39;;;;;;;4.40;4.00;;;3.90;99.90;;;;;;5028497;28;20204;-70
2023/01/04 04:36:05;;;;;;;4.30;3.90;;;4.00;99.90;;;;;;5028848;28;20233;-69
2023/01/04 04:38:31;;;;;;;7.20;4.87;;;3.90;99.90;;;;;;5027923;28;20550;-70
2023/01/04 04:43:41;;;;;;;6.50;4.87;;;3.90;99.90;;;;;;5015797;28;20416;-69
2023/01/04 04:46:07;;;;;;;9.97;4.93;;;4.00;99.90;;;;;;5028327;28;20410;-68
2023/01/04 04:48:32;;;;;;;8.33;4.93;;;4.00;99.90;;;;;;5028329;28;20197;-69
2023/01/04 04:50:58;;;;;;;5.63;5.00;;;3.90;99.90;;;;;;5028236;28;20176;-69
2023/01/04 04:53:24;;;;;;;5.13;4.63;;;4.00;99.90;;;;;;5010514;28;20192;-70
2023/01/04 04:55:50;;;;;;;5.50;3.97;;;4.00;99.90;;;;;;5028312;28;20171;-69
2023/01/04 04:58:16;;;;;;;4.77;4.27;;;4.10;99.90;;;;;;5028353;28;20174;-69
2023/01/04 05:00:42;;;;;;;7.13;6.00;;;4.10;99.90;;;;;;5028344;28;20415;-69
2023/01/04 05:03:07;;;;;;;5.27;4.77;;;4.10;99.90;;;;;;5010326;28;20589;-69
2023/01/04 05:05:33;;;;;;;10.63;5.20;;;4.20;99.90;;;;;;5028257;28;20175;-69
2023/01/04 05:07:59;;;;;;;4.33;3.63;;;4.20;99.90;;;;;;5028063;28;20178;-69
2023/01/04 05:10:24;;;;;;;8.17;4.93;;;4.20;99.90;;;;;;5028594;28;20614;-70
2023/01/04 05:12:58;;;;;;;5.33;4.23;;;4.20;99.90;;;;;;5028135;28;20207;-69
2023/01/04 05:15:36;;;;;;;3.93;3.40;;;4.20;99.90;;;;;;5028203;28;20486;-69
2023/01/04 05:18:02;;;;;;;4.60;3.93;;;4.30;99.90;;;;;;5030100;28;20414;-69
2023/01/04 05:20:28;;;;;;;4.27;3.87;;;4.30;99.90;;;;;;5028027;28;20771;-69
2023/01/04 05:22:53;;;;;;;5.10;4.60;;;4.30;99.90;;;;;;5028613;28;20513;-69
2023/01/04 05:25:19;;;;;;;5.43;3.90;;;4.40;99.90;;;;;;5028151;28;20192;-69
2023/01/04 05:27:45;;;;;;;5.83;5.20;;;4.40;99.90;;;;;;5028684;28;20183;-69
2023/01/04 05:32:57;;;;;;;5.40;3.73;;;4.50;99.90;;;;;;5013621;28;20464;-69
2023/01/04 05:35:23;;;;;;;5.33;4.70;;;4.50;99.90;;;;;;5010627;28;20414;-69
2023/01/04 05:37:49;;;;;;;7.80;4.40;;;4.60;99.90;;;;;;5010597;28;20406;-68
2023/01/04 05:40:15;;;;;;;4.63;4.30;;;4.60;99.90;;;;;;5028909;28;20422;-69
2023/01/04 05:42:40;;;;;;;8.57;4.03;;;4.70;99.90;;;;;;5014836;28;20195;-68
2023/01/04 05:45:06;;;;;;;6.93;4.03;;;4.70;99.90;;;;;;5032315;28;20206;-69
2023/01/04 05:47:32;;;;;;;3.23;2.90;;;4.80;99.90;;;;;;5027954;28;20258;-68
2023/01/04 05:49:58;;;;;;;5.80;4.13;;;4.80;99.90;;;;;;5030594;28;20418;-68
2023/01/04 05:52:24;;;;;;;11.00;4.53;;;4.90;99.90;;;;;;5031639;28;20213;-68
2023/01/04 05:54:49;;;;;;;3.90;3.60;;;4.90;99.90;;;;;;5031693;28;20917;-68
2023/01/04 05:57:15;;;;;;;5.20;3.60;;;4.90;99.90;;;;;;5034006;28;20686;-69
2023/01/04 05:59:41;;;;;;;4.90;4.47;;;5.00;99.90;;;;;;5033649;28;20205;-68
2023/01/04 06:02:13;;;;;;;4.00;3.70;;;5.00;99.90;;;;;;5032143;28;20461;-68
2023/01/04 06:04:39;;;;;;;4.50;4.10;;;5.10;99.90;;;;;;5029014;28;20175;-69
2023/01/04 06:07:05;;;;;;;5.50;3.50;;;5.10;99.90;;;;;;5032223;28;20912;-68
2023/01/04 06:09:30;;;;;;;6.80;3.90;;;5.10;99.90;;;;;;5022392;28;20248;-69
2023/01/04 06:11:56;;;;;;;5.30;4.17;;;5.10;99.90;;;;;;4998229;28;20430;-69
2023/01/04 06:14:22;;;;;;;5.93;4.53;;;5.20;99.90;;;;;;5035956;28;20639;-68
2023/01/04 06:16:48;;;;;;;5.13;4.13;;;5.20;99.90;;;;;;5013952;28;20386;-70
2023/01/04 06:19:13;;;;;;;5.53;4.70;;;5.20;99.90;;;;;;5031194;28;20437;-69
2023/01/04 06:21:39;;;;;;;7.63;4.47;;;5.50;99.90;;;;;;5031197;28;20203;-70
2023/01/04 06:24:05;;;;;;;3.70;3.40;;;5.40;99.90;;;;;;5031242;28;20176;-70
2023/01/04 06:26:31;;;;;;;5.97;3.77;;;5.40;99.90;;;;;;5030563;28;20269;-70
2023/01/04 06:29:02;;;;;;;4.70;3.60;;;5.40;99.90;;;;;;5017953;28;20437;-70
2023/01/04 06:31:28;;;;;;;3.40;2.87;;;5.50;99.90;;;;;;5013604;28;20468;-70
2023/01/04 06:33:54;;;;;;;5.27;3.30;;;5.50;99.90;;;;;;5031411;28;21015;-70
2023/01/04 06:36:20;;;;;;;5.83;3.10;;;5.50;99.90;;;;;;5013893;28;20406;-70
2023/01/04 06:38:47;;;;;;;3.90;3.30;;;5.60;99.90;;;;;;5031389;28;20498;-70
2023/01/04 06:41:13;;;;;;;7.60;3.70;;;5.60;99.90;;;;;;5031538;28;20417;-70
2023/01/04 06:43:38;;;;;;;4.40;3.13;;;5.70;99.90;;;;;;4997515;28;20501;-70
2023/01/04 06:46:04;;;;;;;4.07;3.67;;;5.70;99.90;;;;;;5016932;28;20720;-70
2023/01/04 06:48:30;;;;;;;3.43;3.17;;;5.70;99.90;;;;;;5031451;28;20286;-69
2023/01/04 06:50:56;;;;;;;4.27;3.93;;;5.80;99.90;;;;;;5031492;28;20262;-69
2023/01/04 06:53:21;;;;;;;2.83;2.57;;;5.80;99.90;;;;;;5031314;28;20327;-70
2023/01/04 06:55:47;;;;;;;3.07;2.57;;;5.90;99.90;;;;;;5013490;28;20691;-69
2023/01/04 06:58:13;;;;;;;2.83;2.50;;;5.90;99.90;;;;;;5017529;28;20247;-69
2023/01/04 07:00:38;;;;;;;3.37;3.07;;;6.00;99.90;;;;;;5030131;28;20282;-69
2023/01/04 07:03:04;;;;;;;3.37;3.07;;;6.10;99.90;;;;;;5030873;28;20235;-69
2023/01/04 07:05:30;;;;;;;3.50;2.73;;;6.10;99.90;;;;;;4996662;28;20282;-70
2023/01/04 07:07:59;;;;;;;2.97;2.77;;;6.10;99.90;;;;;;5031414;28;20755;-71
2023/01/04 07:10:25;;;;;;;5.93;3.20;;;6.20;99.90;;;;;;5029511;28;20558;-70
2023/01/04 07:12:51;;;;;;;4.33;3.07;;;6.30;99.90;;;;;;5037310;28;20453;-70
2023/01/04 07:15:18;;;;;;;5.83;3.87;;;6.30;99.90;;;;;;5031410;28;20199;-70
2023/01/04 07:17:47;;;;;;;5.93;3.20;;;6.40;99.90;;;;;;4998756;28;20418;-70
2023/01/04 07:20:12;;;;;;;4.63;3.40;;;6.40;99.90;;;;;;5013380;28;20457;-70
2023/01/04 07:22:38;;;;;;;6.00;2.80;;;6.50;99.90;;;;;;5030900;28;20461;-70
2023/01/04 07:25:05;;;;;;;6.30;4.33;;;6.50;99.90;;;;;;5030622;28;20202;-71
2023/01/04 07:27:30;;;;;;;7.50;4.07;;;6.50;99.90;;;;;;5023561;28;20505;-70
2023/01/04 07:29:56;;;;;;;5.10;3.23;;;6.50;99.90;;;;;;5035428;28;20489;-70
2023/01/04 07:32:22;;;;;;;4.17;2.57;;;6.40;99.90;;;;;;5030130;28;20290;-69
2023/01/04 07:34:48;;;;;;;3.30;3.00;;;6.40;99.90;;;;;;5013200;28;20626;-70
2023/01/04 07:37:14;;;;;;;2.83;2.63;;;6.40;99.90;;;;;;5034884;28;20489;-69
2023/01/04 07:39:43;;;;;;;3.27;2.70;;;6.30;99.90;;;;;;5014394;28;20690;-70
2023/01/04 07:42:13;;;;;;;3.40;2.87;;;6.30;99.90;;;;;;5029958;28;20901;-70
2023/01/04 07:44:38;;;;;;;3.47;2.37;;;6.30;99.90;;;;;;5020896;28;20446;-70
2023/01/04 07:47:04;;;;;;;3.63;2.90;;;6.30;99.90;;;;;;5030083;28;20457;-70
2023/01/04 07:49:30;;;;;;;5.30;2.90;;;6.30;99.90;;;;;;5030201;28;20318;-69
2023/01/04 07:51:58;;;;;;;8.37;6.60;;;6.40;99.90;;;;;;5030674;28;20279;-69
2023/01/04 07:54:24;;;;;;;4.83;2.63;;;6.40;99.90;;;;;;5012323;28;20211;-69
2023/01/04 07:56:50;;;;;;;6.33;3.13;;;6.40;99.90;;;;;;5030080;28;20913;-69
2023/01/04 07:59:19;;;;;;;2.50;2.30;;;6.40;99.90;;;;;;5030029;28;20225;-70
2023/01/04 08:01:45;;;;;;;3.77;2.63;;;6.30;99.90;;;;;;5012385;28;20533;-69
2023/01/04 08:04:12;;;;;;;5.03;3.23;;;6.30;99.90;;;;;;5030098;28;20913;-69
2023/01/04 08:06:39;;;;;;;2.87;2.30;;;6.30;99.90;;;;;;5014881;28;20468;-69
2023/01/04 08:09:05;;;;;;;3.03;2.47;;;6.30;99.90;;;;;;5016417;28;20445;-69
2023/01/04 08:11:33;;;;;;;5.60;2.40;;;6.30;99.90;;;;;;5029289;28;20488;-69
2023/01/04 08:13:58;;;;;;;5.60;2.40;;;6.30;99.90;;;;;;5028852;28;20458;-69
2023/01/04 08:16:36;;;;;;;2.23;2.03;;;6.30;99.90;;;;;;4998973;28;20445;-69
2023/01/04 08:19:14;;;;;;;2.23;2.03;;;6.30;99.90;;;;;;5029670;28;20182;-69
2023/01/04 08:21:40;;;;;;;1.93;1.63;;;6.40;99.90;;;;;;5026446;28;20457;-69
2023/01/04 08:24:06;;;;;;;3.20;1.90;;;6.40;99.90;;;;;;4995372;28;20939;-69
2023/01/04 08:26:32;;;;;;;2.83;2.27;;;6.40;99.90;;;;;;5033724;28;20185;-69
2023/01/04 08:28:58;;;;;;;2.87;2.67;;;6.40;99.90;;;;;;5029027;28;20795;-69
2023/01/04 08:31:27;;;;;;;6.10;2.50;;;6.40;99.90;;;;;;5033723;28;20427;-69
2023/01/04 08:33:54;;;;;;;4.00;2.53;;;6.40;99.90;;;;;;5028913;28;20903;-69
2023/01/04 08:36:24;;;;;;;2.87;2.10;;;6.40;99.90;;;;;;5028443;28;20414;-69
2023/01/04 08:38:52;;;;;;;2.40;2.20;;;6.40;99.90;;;;;;5028533;28;20422;-69
2023/01/04 08:41:18;;;;;;;3.53;1.97;;;6.50;99.90;;;;;;5028287;28;20489;-70
2023/01/04 08:43:44;;;;;;;4.50;2.43;;;6.50;99.90;;;;;;5028354;28;20521;-70
2023/01/04 08:46:11;;;;;;;5.03;3.20;;;6.50;99.90;;;;;;5028287;28;20259;-70
2023/01/04 08:48:37;;;;;;;5.10;2.40;;;6.50;99.90;;;;;;5023954;28;20515;-70
2023/01/04 08:51:06;;;;;;;4.23;2.43;;;6.60;99.90;;;;;;5025733;28;20441;-70
2023/01/04 08:53:32;;;;;;;2.47;2.27;;;6.60;99.90;;;;;;5013570;28;20820;-70
2023/01/04 08:55:59;;;;;;;10.70;2.53;;;6.60;99.90;;;;;;5029893;28;20417;-70
2023/01/04 08:58:26;;;;;;;3.10;2.33;;;6.60;99.90;;;;;;5021992;28;20646;-66
2023/01/04 09:00:52;;;;;;;5.33;3.07;;;6.60;99.90;;;;;;5029963;28;20425;-69
2023/01/04 09:03:18;;;;;;;3.87;2.20;;;6.60;99.90;;;;;;5062199;22;20529;-64
2023/01/04 09:05:44;;;;;;;3.70;3.30;;;6.60;99.90;;;;;;5024585;28;20951;-69
2023/01/04 09:08:10;;;;;;;6.10;3.00;;;6.60;99.90;;;;;;5024097;28;20509;-73
2023/01/04 09:10:39;;;;;;;5.13;3.40;;;6.60;99.90;;;;;;5019885;28;20642;-65
2023/01/04 09:13:05;;;;;;;4.23;2.40;;;6.60;99.90;;;;;;5025466;28;20473;-65
2023/01/04 09:15:32;;;;;;;4.07;3.67;;;6.60;99.90;;;;;;5020387;28;20421;-66
2023/01/04 09:17:58;;;;;;;6.57;3.70;;;6.70;99.90;;;;;;5000056;28;20430;-64
2023/01/04 09:20:23;;;;;;;3.73;2.60;;;6.70;99.90;;;;;;5021677;28;20406;-65
2023/01/04 09:22:49;;;;;;;3.60;2.70;;;6.70;99.90;;;;;;5016802;28;20296;-65
2023/01/04 09:25:15;;;;;;;3.00;2.70;;;6.70;99.90;;;;;;5025916;28;20230;-65
2023/01/04 09:27:40;;;;;;;3.80;3.10;;;6.70;99.90;;;;;;5020835;28;20263;-65
2023/01/04 09:30:06;;;;;;;3.77;3.10;;;6.80;99.90;;;;;;5021658;28;20176;-65
2023/01/04 09:32:32;;;;;;;3.03;2.67;;;6.80;99.90;;;;;;5005815;28;20200;-65
2023/01/04 09:34:58;;;;;;;4.10;3.10;;;6.80;99.90;;;;;;5022441;28;20415;-65
2023/01/04 09:37:23;;;;;;;5.77;3.90;;;6.70;99.90;;;;;;5021625;28;20541;-66
2023/01/04 09:39:49;;;;;;;4.73;2.10;;;6.80;99.90;;;;;;5020883;28;20231;-64
2023/01/04 09:42:39;;;;;;;4.00;2.97;;;6.80;99.90;;;;;;5018407;28;20190;-65
2023/01/04 09:45:26;;;;;;;5.87;3.43;;;6.80;99.90;;;;;;5016742;28;20246;-65
2023/01/04 09:48:11;;;;;;;6.03;3.40;;;6.80;99.90;;;;;;5015294;28;20437;-64
2023/01/04 09:50:49;;;;;;;7.00;2.73;;;6.90;99.90;;;;;;5025286;28;20919;-64
2023/01/04 09:53:22;;;;;;;6.00;3.13;;;6.90;99.90;;;;;;5030834;28;20516;-63
2023/01/04 09:55:52;;;;;;;5.20;3.63;;;6.90;99.90;;;;;;5019209;28;20426;-67
2023/01/04 09:58:25;;;;;;;3.20;2.33;;;6.90;99.90;;;;;;5003383;28;20411;-65
2023/01/04 10:01:03;;;;;;;4.00;3.07;;;6.90;99.90;;;;;;5022620;28;20405;-64
2023/01/04 10:03:33;;;;;;;9.00;3.27;;;6.90;99.90;;;;;;5021321;28;20515;-65
2023/01/04 10:06:00;;;;;;;3.63;3.33;;;6.90;99.90;;;;;;5017800;28;20423;-71
2023/01/04 10:08:26;;;;;;;3.47;3.13;;;6.90;99.90;;;;;;5022982;28;20417;-66
2023/01/04 10:10:58;;;;;;;3.67;3.33;;;6.90;99.90;;;;;;5022684;28;20415;-65
2023/01/04 10:13:42;;;;;;;4.80;2.97;;;6.90;99.90;;;;;;5025432;28;20470;-66
2023/01/04 10:16:17;;;;;;;4.03;3.20;;;6.90;99.90;;;;;;5031307;28;20409;-66
2023/01/04 10:18:49;;;;;;;5.50;3.43;;;6.90;99.90;;;;;;5024158;28;20501;-66
2023/01/04 10:21:31;;;;;;;4.67;3.57;;;6.90;99.90;;;;;;5025916;28;20465;-66
2023/01/04 10:24:24;;;;;;;2.80;2.57;;;7.00;99.90;;;;;;5019481;28;20529;-67
2023/01/04 10:26:54;;;;;;;5.33;2.97;;;6.90;99.90;;;;;;5021521;28;20453;-67
2023/01/04 10:29:39;;;;;;;4.83;4.43;;;7.00;99.90;;;;;;5020117;28;20403;-66
2023/01/04 10:32:10;;;;;;;3.60;3.30;;;7.00;99.90;;;;;;5019244;28;20434;-67
2023/01/04 10:34:44;;;;;;;3.10;2.80;;;7.00;99.90;;;;;;5019572;28;20403;-66
2023/01/04 10:37:15;;;;;;;3.93;3.10;;;7.00;99.90;;;;;;5013513;28;20494;-66
2023/01/04 10:39:42;;;;;;;4.77;4.30;;;7.00;99.90;;;;;;5021477;28;20406;-66
2023/01/04 10:42:17;;;;;;;4.63;3.17;;;7.10;99.90;;;;;;5019308;28;20396;-66
2023/01/04 10:44:48;;;;;;;7.83;3.40;;;7.10;99.90;;;;;;5016191;28;20411;-68
2023/01/04 10:47:37;;;;;;;4.73;3.50;;;7.10;99.90;;;;;;5020084;28;20498;-66
2023/01/04 10:50:26;;;;;;;4.73;3.93;;;7.10;99.90;;;;;;4992888;28;20421;-66
2023/01/04 10:53:19;;;;;;;4.90;3.33;;;7.10;99.90;;;;;;5005899;28;20474;-68
2023/01/04 10:56:20;;;;;;;4.57;3.43;;;7.10;99.90;;;;;;5014952;28;20451;-68
2023/01/04 10:58:56;;;;;;;4.30;3.70;;;7.10;99.90;;;;;;5016130;28;20417;-66
2023/01/04 11:01:38;;;;;;;4.97;3.87;;;7.10;99.90;;;;;;5018807;28;20425;-67
2023/01/04 11:04:38;;;;;;;3.10;2.60;;;7.20;99.90;;;;;;5019799;28;20454;-66
2023/01/04 11:07:22;;;;;;;4.33;3.93;;;7.10;99.90;;;;;;5018764;28;20408;-66
2023/01/04 11:09:53;;;;;;;3.13;2.93;;;7.20;99.90;;;;;;5022386;28;20498;-66
2023/01/04 11:12:20;;;;;;;3.63;3.33;;;7.20;99.90;;;;;;5016449;28;20426;-66
2023/01/04 11:14:47;;;;;;;6.67;4.10;;;7.20;99.90;;;;;;5021180;28;20419;-66
2023/01/04 11:17:13;;;;;;;3.33;2.93;;;7.20;99.90;;;;;;5024814;28;20823;-65
2023/01/04 11:19:39;;;;;;;4.50;3.70;;;7.30;99.90;;;;;;5019569;28;20412;-66
2023/01/04 11:22:14;;;;;;;6.47;3.50;;;7.30;99.90;;;;;;5023251;28;20418;-68
2023/01/04 11:24:41;;;;;;;4.93;3.53;;;7.30;99.90;;;;;;5021888;28;20413;-65
2023/01/04 11:27:15;;;;;;;3.93;3.00;;;7.30;99.90;;;;;;5015331;28;20415;-66
2023/01/04 11:30:18;;;;;;;3.67;3.33;;;7.40;99.90;;;;;;5015378;28;20883;-67
2023/01/04 11:32:50;;;;;;;5.13;3.20;;;7.40;99.90;;;;;;4972804;28;20507;-66
2023/01/04 11:35:36;;;;;;;3.40;3.00;;;7.40;99.90;;;;;;5009278;28;20418;-70
2023/01/04 11:38:13;;;;;;;4.70;4.27;;;7.50;99.90;;;;;;5011095;28;20411;-66
2023/01/04 11:40:40;;;;;;;3.30;3.10;;;7.50;99.90;;;;;;5023736;28;20780;-66
2023/01/04 11:43:19;;;;;;;5.07;3.30;;;7.50;99.90;;;;;;5014700;28;20442;-66
2023/01/04 11:46:06;;;;;;;3.70;3.20;;;7.50;99.90;;;;;;5015021;28;20438;-66
2023/01/04 11:48:43;;;;;;;3.53;2.87;;;7.60;99.90;;;;;;5015919;28;20418;-66
2023/01/04 11:51:25;;;;;;;5.13;3.80;;;7.60;99.90;;;;;;5015319;28;20505;-66
2023/01/04 11:54:04;;;;;;;6.10;3.67;;;7.60;99.90;;;;;;5021980;28;20506;-65
2023/01/04 11:56:55;;;;;;;3.53;3.23;;;7.60;99.90;;;;;;5014760;28;20917;-65
2023/01/04 11:59:21;;;;;;;3.10;2.80;;;7.60;99.90;;;;;;5012932;28;20398;-66
2023/01/04 12:01:49;;;;;;;4.33;2.73;;;7.70;99.90;;;;;;5018515;28;20414;-66
2023/01/04 12:04:24;;;;;;;2.77;2.57;;;7.70;99.90;;;;;;5018637;28;20224;-66
2023/01/04 12:07:04;;;;;;;5.10;2.80;;;7.70;99.90;;;;;;5017035;28;20502;-66
2023/01/04 12:09:30;;;;;;;3.43;2.87;;;7.80;99.90;;;;;;5020467;28;20407;-66
2023/01/04 12:11:59;;;;;;;3.80;3.40;;;7.80;99.90;;;;;;5026852;28;20457;-67
2023/01/04 12:14:27;;;;;;;2.87;2.67;;;7.80;99.90;;;;;;5020102;28;20514;-65
2023/01/04 12:17:28;;;;;;;2.97;2.73;;;7.80;99.90;;;;;;5013763;28;20408;-65
2023/01/04 12:19:55;;;;;;;7.90;3.20;;;7.80;99.90;;;;;;5018374;28;20406;-67
2023/01/04 12:22:35;;;;;;;4.00;3.10;;;7.90;99.90;;;;;;5018292;28;20415;-66
2023/01/04 12:25:04;;;;;;;4.37;2.90;;;7.90;99.90;;;;;;5006263;28;20398;-66
2023/01/04 12:27:29;;;;;;;3.60;3.30;;;7.90;99.90;;;;;;5017307;28;20804;-66
2023/01/04 12:30:00;;;;;;;3.97;2.67;;;7.90;99.90;;;;;;5016822;28;20416;-67
2023/01/04 12:32:26;;;;;;;3.47;3.17;;;7.90;99.90;;;;;;5022675;28;20172;-70
2023/01/04 12:34:53;;;;;;;3.10;2.83;;;7.90;99.90;;;;;;5025921;28;21013;-69
2023/01/04 12:37:37;;;;;;;3.50;3.20;;;7.90;99.90;;;;;;5025162;28;20188;-72
2023/01/04 12:40:23;;;;;;;5.27;3.53;;;7.90;99.90;;;;;;5024852;28;20398;-70
2023/01/04 12:43:14;;;;;;;3.37;2.10;;;7.90;99.90;;;;;;5025926;28;20799;-68
2023/01/04 12:45:41;;;;;;;3.60;2.77;;;7.90;99.90;;;;;;5003371;28;20545;-73
2023/01/04 12:51:20;;;;;;;3.33;2.73;;;8.00;99.90;;;;;;5024689;28;20472;-66
2023/01/04 12:53:50;;;;;;;3.17;2.50;;;8.00;99.90;;;;;;5029166;28;20516;-67
2023/01/04 12:56:15;;;;;;;2.57;2.37;;;8.00;99.90;;;;;;5030921;28;20728;-69
2023/01/04 12:59:01;;;;;;;4.37;2.87;;;8.00;99.90;;;;;;5011035;28;20513;-67
2023/01/04 13:01:28;;;;;;;4.50;2.73;;;7.90;99.90;;;;;;5027580;28;20183;-75
2023/01/04 13:04:00;;;;;;;2.77;2.57;;;7.90;99.90;;;;;;5035137;28;20450;-71
2023/01/04 13:06:28;;;;;;;3.30;2.67;;;7.90;99.90;;;;;;5027685;28;20406;-74
2023/01/04 13:08:54;;;;;;;4.90;3.10;;;7.90;99.90;;;;;;5035696;28;20421;-68
2023/01/04 13:11:31;;;;;;;3.10;2.40;;;7.90;99.90;;;;;;5034172;28;20517;-66
2023/01/04 13:14:08;;;;;;;3.00;2.63;;;7.90;99.90;;;;;;5033003;28;20238;-65
2023/01/04 13:17:12;;;;;;;3.20;2.80;;;7.90;99.90;;;;;;5036937;28;20414;-66
2023/01/04 13:19:39;;;;;;;3.70;2.17;;;7.90;99.90;;;;;;5022121;28;20421;-67
2023/01/04 13:22:25;;;;;;;4.40;3.20;;;7.90;99.90;;;;;;5038943;28;20409;-66
2023/01/04 13:24:52;;;;;;;4.67;3.77;;;7.90;99.90;;;;;;5034042;28;20441;-65
2023/01/04 13:27:20;;;;;;;6.30;2.53;;;8.00;99.90;;;;;;5033870;28;20449;-66
2023/01/04 13:29:47;;;;;;;3.50;2.50;;;8.00;99.90;;;;;;5033512;28;20415;-66
2023/01/04 13:32:27;;;;;;;3.47;2.80;;;8.00;99.90;;;;;;5033412;28;20418;-65
2023/01/04 13:35:00;;;;;;;2.77;2.57;;;8.00;99.90;;;;;;5032857;28;20434;-64
2023/01/04 13:37:36;;;;;;;2.53;1.90;;;8.00;99.90;;;;;;5029232;28;20725;-64
2023/01/04 13:40:21;;;;;;;3.37;3.07;;;8.00;99.90;;;;;;5033860;28;20430;-65
2023/01/04 13:42:50;;;;;;;3.60;3.00;;;8.00;99.90;;;;;;5033916;28;20446;-65
2023/01/04 13:46:07;;;;;;;3.00;2.80;;;8.00;99.90;;;;;;5033719;28;20491;-66
2023/01/04 13:48:39;;;;;;;4.10;2.43;;;8.00;99.90;;;;;;5024200;28;20492;-65
2023/01/04 13:51:29;;;;;;;5.50;3.10;;;8.00;99.90;;;;;;5033630;28;20426;-65
2023/01/04 13:53:59;;;;;;;4.27;3.23;;;8.00;99.90;;;;;;5026826;28;20462;-65
2023/01/04 13:56:33;;;;;;;3.90;3.03;;;8.00;99.90;;;;;;5033439;28;20416;-65
2023/01/04 13:58:59;;;;;;;2.90;2.10;;;8.10;99.90;;;;;;5033678;28;20398;-68
2023/01/04 14:01:33;;;;;;;3.30;3.00;;;8.00;99.90;;;;;;5030326;28;20414;-66
2023/01/04 14:04:04;;;;;;;5.20;2.97;;;8.10;99.90;;;;;;5033235;28;20869;-65